Time;durP1;ratioP1;P1;durP2;ratioP2;P2;SDS_P1;SDS_P2;PMS_P1;PMS_P2;Temp;Humidity;BMP_temperature;BMP_pressure;BME280_temperature;BME280_humidity;BME280_pressure;Samples;Min_cycle;Max_cycle;Signal;HPM_P1;HPM_P2
2023/01/28 00:00:33;;;;;;;9.30;3.40;;;;;;;;;;5067488;28;20422;-84
2023/01/28 00:03:06;;;;;;;9.40;3.80;;;;;;;;;;5058411;28;20424;-84
2023/01/28 00:05:38;;;;;;;7.82;3.53;;;;;;;;;;5062397;28;20430;-83
2023/01/28 00:08:13;;;;;;;10.40;3.38;;;;;;;;;;5064904;28;20994;-82
2023/01/28 00:10:41;;;;;;;6.78;3.25;;;;;;;;;;5060138;28;20428;-83
2023/01/28 00:13:15;;;;;;;7.72;3.10;;;;;;;;;;5068870;28;20423;-82
2023/01/28 00:15:54;;;;;;;7.53;2.90;;;;;;;;;;5063370;28;20935;-83
2023/01/28 00:18:27;;;;;;;6.85;2.83;;;;;;;;;;5064690;28;20457;-83
2023/01/28 00:21:01;;;;;;;6.40;2.47;;;;;;;;;;5057854;28;20425;-83
2023/01/28 00:23:35;;;;;;;4.82;2.05;;;;;;;;;;5063578;28;20414;-83
2023/01/28 00:26:11;;;;;;;3.67;1.50;;;;;;;;;;5054726;28;20761;-83
2023/01/28 00:28:46;;;;;;;4.80;1.40;;;;;;;;;;5083848;28;20757;-83
2023/01/28 00:31:20;;;;;;;2.95;1.27;;;;;;;;;;5064572;28;20781;-83
2023/01/28 00:33:49;;;;;;;6.60;1.50;;;;;;;;;;5080438;28;20428;-83
2023/01/28 00:36:17;;;;;;;3.97;1.50;;;;;;;;;;5075476;28;20415;-84
2023/01/28 00:38:50;;;;;;;4.15;1.40;;;;;;;;;;5069970;28;20498;-83
2023/01/28 00:41:24;;;;;;;7.38;1.90;;;;;;;;;;5081807;28;20429;-83
2023/01/28 00:43:59;;;;;;;4.50;1.67;;;;;;;;;;5070772;28;21109;-82
2023/01/28 00:46:32;;;;;;;5.38;1.90;;;;;;;;;;5070967;28;20421;-83
2023/01/28 00:49:00;;;;;;;3.90;1.63;;;;;;;;;;5070965;28;20423;-83
2023/01/28 00:51:34;;;;;;;4.18;1.77;;;;;;;;;;5070929;28;21111;-83
2023/01/28 00:54:06;;;;;;;3.90;1.60;;;;;;;;;;5069852;28;20400;-83
2023/01/28 00:56:35;;;;;;;4.17;1.80;;;;;;;;;;5069086;28;20533;-83
2023/01/28 00:59:10;;;;;;;7.32;1.70;;;;;;;;;;5069621;28;21002;-83
2023/01/28 01:01:37;;;;;;;3.65;1.80;;;;;;;;;;5063354;28;20430;-85
2023/01/28 01:04:05;;;;;;;6.03;1.90;;;;;;;;;;5071417;28;20772;-83
2023/01/28 01:06:39;;;;;;;7.40;2.50;;;;;;;;;;5084926;28;20493;-84
2023/01/28 01:09:12;;;;;;;8.50;3.72;;;;;;;;;;5073018;28;20408;-84
2023/01/28 01:11:45;;;;;;;8.27;2.90;;;;;;;;;;5058380;28;20421;-85
2023/01/28 01:14:19;;;;;;;6.63;3.15;;;;;;;;;;5059624;28;20424;-83
2023/01/28 01:16:47;;;;;;;6.73;2.90;;;;;;;;;;5069779;28;20509;-83
2023/01/28 01:19:19;;;;;;;8.07;2.87;;;;;;;;;;5070171;28;20415;-84
2023/01/28 01:21:52;;;;;;;7.37;3.10;;;;;;;;;;5063858;28;20429;-83
2023/01/28 01:24:28;;;;;;;7.10;3.10;;;;;;;;;;5072274;28;20432;-84
2023/01/28 01:26:56;;;;;;;8.88;3.40;;;;;;;;;;5087548;28;20432;-83
2023/01/28 01:29:30;;;;;;;7.82;3.30;;;;;;;;;;5069447;28;20420;-84
2023/01/28 01:31:58;;;;;;;7.07;3.05;;;;;;;;;;5086050;28;20427;-83
2023/01/28 01:34:31;;;;;;;7.50;2.95;;;;;;;;;;5064099;28;20799;-83
2023/01/28 01:37:05;;;;;;;6.68;2.40;;;;;;;;;;5070839;28;20932;-83
2023/01/28 01:39:37;;;;;;;5.75;2.20;;;;;;;;;;5085999;28;20425;-83
2023/01/28 01:42:11;;;;;;;3.17;1.60;;;;;;;;;;5075011;28;20890;-84
2023/01/28 01:44:56;;;;;;;3.90;1.40;;;;;;;;;;5072037;28;20420;-83
2023/01/28 01:47:32;;;;;;;4.70;1.60;;;;;;;;;;5059688;28;20911;-83
2023/01/28 01:50:09;;;;;;;4.25;1.88;;;;;;;;;;5067156;28;20416;-84
2023/01/28 01:52:42;;;;;;;4.35;1.73;;;;;;;;;;5069709;28;20919;-84
2023/01/28 01:55:12;;;;;;;3.60;1.50;;;;;;;;;;5061463;28;20777;-83
2023/01/28 01:57:45;;;;;;;4.93;1.80;;;;;;;;;;5066560;28;20424;-83
2023/01/28 02:00:20;;;;;;;5.03;1.88;;;;;;;;;;5065817;28;20942;-83
2023/01/28 02:02:53;;;;;;;4.13;1.80;;;;;;;;;;5070656;28;20420;-83
2023/01/28 02:05:26;;;;;;;4.82;1.70;;;;;;;;;;5065722;28;20442;-83
2023/01/28 02:08:19;;;;;;;6.10;2.17;;;;;;;;;;5068274;28;20415;-83
2023/01/28 02:10:49;;;;;;;5.57;2.13;;;;;;;;;;5065186;28;20438;-83
2023/01/28 02:13:24;;;;;;;7.60;2.25;;;;;;;;;;5065056;28;20431;-83
2023/01/28 02:15:53;;;;;;;6.95;2.13;;;;;;;;;;5061964;28;20413;-83
2023/01/28 02:18:21;;;;;;;6.35;2.08;;;;;;;;;;5060511;28;20417;-83
2023/01/28 02:21:03;;;;;;;4.30;1.90;;;;;;;;;;5068065;28;20424;-83
2023/01/28 02:23:45;;;;;;;3.90;2.00;;;;;;;;;;5061570;28;20426;-84
2023/01/28 02:26:26;;;;;;;4.18;2.00;;;;;;;;;;5063262;28;20420;-83
2023/01/28 02:29:00;;;;;;;4.18;2.00;;;;;;;;;;5066753;28;20899;-83
2023/01/28 02:31:31;;;;;;;6.03;2.20;;;;;;;;;;5077308;28;20433;-83
2023/01/28 02:34:07;;;;;;;5.18;2.10;;;;;;;;;;5071405;28;20427;-83
2023/01/28 02:36:39;;;;;;;4.45;1.83;;;;;;;;;;5068388;28;20419;-83
2023/01/28 02:39:13;;;;;;;5.47;2.10;;;;;;;;;;5077822;28;20936;-83
2023/01/28 02:41:48;;;;;;;4.70;1.90;;;;;;;;;;5084261;28;20923;-83
2023/01/28 02:44:23;;;;;;;4.22;1.98;;;;;;;;;;5070911;28;20427;-84
2023/01/28 02:49:49;;;;;;;4.37;1.80;;;;;;;;;;5070033;28;20863;-83
2023/01/28 02:55:27;;;;;;;4.47;1.80;;;;;;;;;;5071471;28;20446;-83
2023/01/28 02:58:03;;;;;;;6.20;1.50;;;;;;;;;;5068424;28;20931;-84
2023/01/28 03:00:38;;;;;;;4.40;1.70;;;;;;;;;;5069881;28;20428;-83
2023/01/28 03:03:12;;;;;;;5.53;2.20;;;;;;;;;;5062657;28;20423;-83
2023/01/28 03:06:02;;;;;;;4.85;2.03;;;;;;;;;;5058701;28;20421;-84
2023/01/28 03:36:48;;;;;;;5.88;2.75;;;;;;;;;;5061055;28;20404;-83
2023/01/28 03:39:36;;;;;;;7.20;2.83;;;;;;;;;;5056371;28;20424;-83
2023/01/28 03:42:11;;;;;;;8.98;2.97;;;;;;;;;;5067093;28;20412;-83
2023/01/28 03:45:14;;;;;;;5.32;2.50;;;;;;;;;;5052221;28;20430;-83
2023/01/28 03:47:43;;;;;;;8.02;2.83;;;;;;;;;;5063828;28;20785;-83
2023/01/28 03:50:17;;;;;;;6.57;2.80;;;;;;;;;;5085910;28;20450;-83
2023/01/28 03:53:10;;;;;;;5.60;2.70;;;;;;;;;;5064068;28;20429;-83
2023/01/28 03:55:48;;;;;;;7.97;3.10;;;;;;;;;;5062988;28;20423;-83
2023/01/28 03:58:22;;;;;;;5.22;2.67;;;;;;;;;;5066232;28;21251;-83
2023/01/28 04:00:55;;;;;;;7.22;2.88;;;;;;;;;;5067013;28;20423;-83
2023/01/28 04:03:27;;;;;;;5.57;2.42;;;;;;;;;;5065913;28;20434;-83
2023/01/28 04:06:09;;;;;;;5.38;2.50;;;;;;;;;;5081145;28;20422;-83
2023/01/28 04:09:00;;;;;;;5.32;2.40;;;;;;;;;;5075599;28;20432;-83
2023/01/28 04:11:41;;;;;;;5.13;2.00;;;;;;;;;;5066754;28;20439;-83
2023/01/28 04:14:11;;;;;;;5.13;2.03;;;;;;;;;;5068285;28;20416;-83
2023/01/28 04:16:45;;;;;;;7.72;2.30;;;;;;;;;;5089201;28;20423;-83
2023/01/28 04:19:14;;;;;;;4.40;2.25;;;;;;;;;;5081663;28;20432;-83
2023/01/28 04:21:49;;;;;;;5.13;2.45;;;;;;;;;;5073060;28;20498;-83
2023/01/28 04:24:22;;;;;;;5.82;2.42;;;;;;;;;;5083279;28;20790;-83
2023/01/28 04:26:50;;;;;;;6.20;2.40;;;;;;;;;;5072189;28;20419;-83
2023/01/28 04:29:23;;;;;;;5.35;2.38;;;;;;;;;;5072991;28;20411;-83
2023/01/28 04:31:52;;;;;;;4.17;2.20;;;;;;;;;;5071236;28;20432;-83
2023/01/28 04:34:38;;;;;;;4.90;2.10;;;;;;;;;;5067500;28;20454;-83
2023/01/28 04:37:27;;;;;;;4.63;2.08;;;;;;;;;;5062710;28;20428;-83
2023/01/28 04:40:11;;;;;;;6.95;2.00;;;;;;;;;;5069400;28;20932;-83
2023/01/28 04:42:56;;;;;;;5.60;2.08;;;;;;;;;;5071702;28;20851;-83
2023/01/28 04:45:36;;;;;;;5.20;1.80;;;;;;;;;;5067700;28;20423;-83
2023/01/28 04:48:33;;;;;;;5.30;1.85;;;;;;;;;;5067989;28;20415;-83
2023/01/28 04:51:18;;;;;;;5.77;1.90;;;;;;;;;;5067975;28;20408;-83
2023/01/28 04:54:07;;;;;;;5.32;1.80;;;;;;;;;;5070728;28;20422;-83
2023/01/28 04:56:36;;;;;;;4.37;2.10;;;;;;;;;;5065457;28;20433;-83
2023/01/28 04:59:10;;;;;;;6.65;2.30;;;;;;;;;;5070218;28;20407;-83
2023/01/28 05:01:38;;;;;;;5.18;2.22;;;;;;;;;;5069039;28;20431;-82
2023/01/28 05:04:11;;;;;;;6.13;2.10;;;;;;;;;;5064278;28;20425;-83
2023/01/28 05:06:44;;;;;;;5.17;2.30;;;;;;;;;;5069639;28;20908;-83
2023/01/28 05:09:19;;;;;;;4.97;2.10;;;;;;;;;;5065591;28;20434;-84
2023/01/28 05:11:50;;;;;;;6.20;2.08;;;;;;;;;;5083059;28;20432;-83
2023/01/28 05:14:23;;;;;;;5.35;2.13;;;;;;;;;;5084341;28;21396;-83
2023/01/28 05:17:07;;;;;;;5.22;2.28;;;;;;;;;;5070241;28;20451;-83
2023/01/28 05:19:35;;;;;;;5.43;2.30;;;;;;;;;;5084607;28;20431;-82
2023/01/28 05:22:05;;;;;;;6.72;2.40;;;;;;;;;;5064014;28;20421;-82
2023/01/28 05:24:45;;;;;;;6.77;2.27;;;;;;;;;;5070139;28;20431;-83
2023/01/28 05:27:14;;;;;;;5.90;2.45;;;;;;;;;;5070316;28;20439;-83
2023/01/28 05:29:42;;;;;;;5.80;2.38;;;;;;;;;;5065045;28;20448;-82
2023/01/28 05:32:10;;;;;;;5.45;2.53;;;;;;;;;;5059609;28;20424;-83
2023/01/28 05:34:42;;;;;;;5.93;2.38;;;;;;;;;;5088001;28;20424;-83
2023/01/28 05:37:14;;;;;;;5.97;2.50;;;;;;;;;;5063153;28;20412;-83
2023/01/28 05:39:41;;;;;;;5.18;2.55;;;;;;;;;;5066424;28;20422;-84
2023/01/28 05:42:19;;;;;;;8.18;2.80;;;;;;;;;;5069133;28;20441;-84
2023/01/28 05:44:48;;;;;;;4.47;2.60;;;;;;;;;;5079090;28;21247;-83
2023/01/28 05:47:40;;;;;;;6.50;2.50;;;;;;;;;;5078487;28;20418;-83
2023/01/28 05:50:21;;;;;;;5.10;2.42;;;;;;;;;;5069980;28;20416;-83
2023/01/28 05:53:17;;;;;;;5.07;2.50;;;;;;;;;;5062692;28;20438;-83
2023/01/28 05:55:47;;;;;;;6.55;2.45;;;;;;;;;;5065721;28;20426;-83
2023/01/28 05:58:22;;;;;;;6.53;2.67;;;;;;;;;;5067061;28;20908;-83
2023/01/28 06:00:49;;;;;;;6.63;2.45;;;;;;;;;;5084778;28;20454;-83
2023/01/28 06:03:27;;;;;;;6.38;2.80;;;;;;;;;;5065161;28;20423;-83
2023/01/28 06:06:02;;;;;;;5.55;2.90;;;;;;;;;;5067882;28;20446;-83
2023/01/28 06:08:36;;;;;;;7.47;2.63;;;;;;;;;;5067388;28;20423;-83
2023/01/28 06:11:09;;;;;;;7.07;2.70;;;;;;;;;;5082330;28;20424;-83
2023/01/28 06:13:44;;;;;;;6.32;2.58;;;;;;;;;;5065132;28;20776;-83
2023/01/28 06:16:43;;;;;;;6.30;2.67;;;;;;;;;;5061248;28;20432;-83
2023/01/28 06:19:25;;;;;;;7.47;2.80;;;;;;;;;;5086338;28;20947;-82
2023/01/28 06:21:58;;;;;;;5.53;2.70;;;;;;;;;;5084373;28;20424;-82
2023/01/28 06:24:26;;;;;;;7.05;2.83;;;;;;;;;;5065277;28;20916;-83
2023/01/28 06:26:54;;;;;;;6.72;3.15;;;;;;;;;;5069477;28;20416;-82
2023/01/28 06:29:28;;;;;;;8.85;2.92;;;;;;;;;;5069891;28;20435;-82
2023/01/28 06:32:01;;;;;;;6.50;2.88;;;;;;;;;;5069917;28;20424;-83
2023/01/28 06:34:33;;;;;;;7.43;2.95;;;;;;;;;;5070409;28;20420;-82
2023/01/28 06:37:06;;;;;;;7.55;2.90;;;;;;;;;;5065805;28;20763;-84
2023/01/28 06:39:39;;;;;;;7.47;2.80;;;;;;;;;;5067557;28;20780;-82
2023/01/28 06:42:11;;;;;;;6.28;2.85;;;;;;;;;;5066057;28;20434;-83
2023/01/28 06:44:46;;;;;;;6.57;2.75;;;;;;;;;;5062312;28;20875;-83
2023/01/28 06:47:14;;;;;;;7.73;2.90;;;;;;;;;;5092917;28;20424;-83
2023/01/28 06:49:42;;;;;;;6.50;2.95;;;;;;;;;;5064454;28;20458;-83
2023/01/28 06:52:09;;;;;;;6.15;2.90;;;;;;;;;;5069468;28;20424;-82
2023/01/28 06:54:42;;;;;;;7.88;3.25;;;;;;;;;;5069263;28;20446;-82
2023/01/28 06:57:10;;;;;;;5.95;3.08;;;;;;;;;;5067895;28;20436;-83
2023/01/28 06:59:43;;;;;;;10.10;3.60;;;;;;;;;;5066244;28;20454;-82
2023/01/28 07:02:12;;;;;;;9.97;3.37;;;;;;;;;;5069149;28;20419;-82
2023/01/28 07:04:39;;;;;;;10.60;4.00;;;;;;;;;;5080447;28;20916;-83
2023/01/28 07:07:12;;;;;;;6.35;3.20;;;;;;;;;;5067654;28;20435;-83
2023/01/28 07:09:40;;;;;;;5.63;3.10;;;;;;;;;;5078791;28;21146;-83
2023/01/28 07:12:13;;;;;;;6.50;3.00;;;;;;;;;;5083088;28;20417;-82
2023/01/28 07:14:46;;;;;;;5.30;2.72;;;;;;;;;;5079759;28;20436;-83
2023/01/28 07:17:15;;;;;;;5.10;2.53;;;;;;;;;;5066720;28;20416;-84
2023/01/28 07:19:42;;;;;;;6.75;2.80;;;;;;;;;;5066043;28;20915;-82
2023/01/28 07:22:10;;;;;;;6.45;2.90;;;;;;;;;;5068790;28;20423;-82
2023/01/28 07:24:43;;;;;;;8.68;3.05;;;;;;;;;;5062719;28;20911;-82
2023/01/28 07:27:16;;;;;;;9.77;3.30;;;;;;;;;;5064160;28;20900;-82
2023/01/28 07:29:43;;;;;;;8.35;3.30;;;;;;;;;;5067397;28;20416;-82
2023/01/28 07:32:11;;;;;;;6.53;2.90;;;;;;;;;;5064986;28;20424;-83
2023/01/28 07:34:45;;;;;;;8.45;2.92;;;;;;;;;;5059232;28;20932;-82
2023/01/28 07:37:18;;;;;;;6.07;2.92;;;;;;;;;;5062281;28;20430;-82
2023/01/28 07:39:46;;;;;;;6.53;2.70;;;;;;;;;;5068371;28;20432;-82
2023/01/28 07:42:19;;;;;;;6.20;2.67;;;;;;;;;;5059653;28;20779;-82
2023/01/28 07:44:48;;;;;;;7.28;3.55;;;;;;;;;;5081296;28;20431;-85
2023/01/28 07:47:21;;;;;;;9.68;3.20;;;;;;;;;;5068214;28;20423;-83
2023/01/28 07:49:50;;;;;;;8.95;3.60;;;;;;;;;;5068830;28;21214;-82
2023/01/28 07:52:18;;;;;;;6.53;2.95;;;;;;;;;;5060027;28;20420;-82
2023/01/28 07:54:46;;;;;;;6.43;2.85;;;;;;;;;;5062380;28;20432;-82
2023/01/28 07:57:22;;;;;;;9.20;3.15;;;;;;;;;;5066566;28;20428;-83
2023/01/28 07:59:54;;;;;;;11.05;3.17;;;;;;;;;;5061653;28;20428;-82
2023/01/28 08:02:22;;;;;;;6.20;3.30;;;;;;;;;;5067717;28;20498;-82
2023/01/28 08:04:58;;;;;;;7.60;3.50;;;;;;;;;;5061254;28;20440;-82
2023/01/28 08:07:27;;;;;;;7.78;3.80;;;;;;;;;;5072348;28;20435;-86
2023/01/28 08:09:55;;;;;;;8.70;3.90;;;;;;;;;;5063846;28;20435;-88
2023/01/28 08:12:27;;;;;;;7.68;3.70;;;;;;;;;;5060667;28;20434;-87
2023/01/28 08:15:00;;;;;;;10.10;3.92;;;;;;;;;;5063445;28;20428;-87
2023/01/28 08:17:33;;;;;;;11.20;4.00;;;;;;;;;;5063432;28;20427;-87
2023/01/28 08:20:09;;;;;;;8.65;3.75;;;;;;;;;;5064597;28;20421;-86
2023/01/28 08:22:41;;;;;;;6.45;3.58;;;;;;;;;;5067783;28;20450;-86
2023/01/28 08:25:09;;;;;;;8.80;3.60;;;;;;;;;;5065858;28;20449;-87
2023/01/28 08:27:37;;;;;;;8.15;3.70;;;;;;;;;;5074005;28;20912;-86
2023/01/28 08:30:05;;;;;;;8.60;3.30;;;;;;;;;;5063136;28;20449;-85
2023/01/28 08:32:33;;;;;;;8.38;3.92;;;;;;;;;;5064543;28;20759;-87
2023/01/28 08:35:08;;;;;;;7.20;3.83;;;;;;;;;;5062892;28;20942;-85
2023/01/28 08:37:35;;;;;;;11.20;4.25;;;;;;;;;;5061054;28;20415;-84
2023/01/28 08:40:09;;;;;;;9.98;4.10;;;;;;;;;;5061609;28;20786;-84
2023/01/28 08:42:46;;;;;;;11.85;4.50;;;;;;;;;;5076358;28;20425;-86
2023/01/28 08:45:14;;;;;;;8.45;4.32;;;;;;;;;;5064282;28;20423;-86
2023/01/28 08:47:47;;;;;;;10.93;4.95;;;;;;;;;;5063937;28;20440;-82
2023/01/28 08:50:22;;;;;;;8.85;4.75;;;;;;;;;;5066717;28;20420;-84
2023/01/28 08:52:54;;;;;;;11.40;5.25;;;;;;;;;;5062265;28;20430;-83
2023/01/28 08:55:27;;;;;;;8.48;4.80;;;;;;;;;;5063160;28;20428;-82
2023/01/28 08:57:55;;;;;;;10.15;5.07;;;;;;;;;;5061320;28;20436;-83
2023/01/28 09:00:23;;;;;;;9.68;5.50;;;;;;;;;;5063025;28;20424;-83
2023/01/28 09:02:51;;;;;;;9.83;5.40;;;;;;;;;;5064777;28;20431;-82
2023/01/28 09:05:19;;;;;;;12.75;5.72;;;;;;;;;;5063661;28;20431;-82
2023/01/28 09:07:54;;;;;;;10.48;5.40;;;;;;;;;;5079686;28;20506;-82
2023/01/28 09:10:26;;;;;;;12.52;5.88;;;;;;;;;;5064629;28;20918;-83
2023/01/28 09:12:59;;;;;;;11.35;6.07;;;;;;;;;;5059961;28;20439;-82
2023/01/28 09:15:27;;;;;;;13.23;6.88;;;;;;;;;;5061442;28;20433;-82
2023/01/28 09:18:00;;;;;;;11.30;6.32;;;;;;;;;;5059029;28;20427;-83
2023/01/28 09:20:33;;;;;;;11.02;6.18;;;;;;;;;;5062582;28;20429;-81
2023/01/28 09:23:02;;;;;;;11.57;6.27;;;;;;;;;;5081582;28;20423;-83
2023/01/28 09:25:35;;;;;;;12.18;6.68;;;;;;;;;;5077864;28;20431;-85
2023/01/28 09:28:08;;;;;;;11.98;6.07;;;;;;;;;;5064009;28;20425;-84
2023/01/28 09:30:36;;;;;;;12.65;6.57;;;;;;;;;;5062137;28;20427;-83
2023/01/28 09:33:09;;;;;;;12.40;6.10;;;;;;;;;;5079496;28;20788;-84
2023/01/28 09:35:42;;;;;;;11.48;6.05;;;;;;;;;;5067708;28;20443;-81
2023/01/28 09:38:16;;;;;;;12.10;6.55;;;;;;;;;;5065621;28;20427;-83
2023/01/28 09:40:49;;;;;;;13.25;6.30;;;;;;;;;;5060419;28;20422;-83
2023/01/28 09:43:39;;;;;;;15.50;6.22;;;;;;;;;;5067301;28;20430;-83
2023/01/28 09:46:10;;;;;;;13.57;6.57;;;;;;;;;;5063858;28;20431;-82
2023/01/28 09:48:39;;;;;;;11.57;6.65;;;;;;;;;;5074812;28;20412;-82
2023/01/28 09:51:09;;;;;;;13.63;6.97;;;;;;;;;;5065318;28;20433;-83
2023/01/28 09:53:46;;;;;;;13.23;5.60;;;;;;;;;;5063489;28;20423;-83
2023/01/28 09:56:25;;;;;;;11.82;6.15;;;;;;;;;;5077779;28;20443;-83
2023/01/28 09:58:59;;;;;;;11.38;5.45;;;;;;;;;;5059292;28;20415;-83
2023/01/28 10:01:36;;;;;;;12.52;6.07;;;;;;;;;;5065838;28;20425;-82
2023/01/28 10:04:15;;;;;;;13.93;7.03;;;;;;;;;;5064206;28;20750;-83
2023/01/28 10:06:50;;;;;;;16.20;8.10;;;;;;;;;;5059977;28;20775;-82
2023/01/28 10:09:30;;;;;;;27.40;12.07;;;;;;;;;;5084115;28;20435;-83
2023/01/28 10:12:03;;;;;;;16.58;8.05;;;;;;;;;;5069655;28;20427;-81
2023/01/28 10:14:42;;;;;;;13.30;6.67;;;;;;;;;;5069517;28;20432;-84
2023/01/28 10:17:12;;;;;;;12.55;7.03;;;;;;;;;;5061673;28;20423;-83
2023/01/28 10:19:47;;;;;;;14.02;6.80;;;;;;;;;;5064462;28;20416;-84
2023/01/28 10:22:23;;;;;;;15.93;9.35;;;;;;;;;;5063473;28;21282;-83
2023/01/28 10:25:00;;;;;;;14.13;7.40;;;;;;;;;;5081176;28;20434;-83
2023/01/28 10:27:29;;;;;;;14.43;7.82;;;;;;;;;;5068651;28;20931;-83
2023/01/28 10:30:14;;;;;;;15.38;8.00;;;;;;;;;;5061883;28;20431;-83
2023/01/28 10:32:51;;;;;;;14.57;7.65;;;;;;;;;;5054665;28;20793;-82
2023/01/28 10:35:24;;;;;;;15.13;7.97;;;;;;;;;;5081457;28;20786;-82
2023/01/28 10:38:00;;;;;;;14.45;8.25;;;;;;;;;;5078290;28;20780;-83
2023/01/28 10:40:29;;;;;;;13.48;6.85;;;;;;;;;;5080421;28;20433;-82
2023/01/28 10:43:02;;;;;;;11.60;7.15;;;;;;;;;;5060069;28;20904;-82
2023/01/28 10:45:32;;;;;;;12.15;7.40;;;;;;;;;;5058734;28;20450;-82
2023/01/28 10:48:01;;;;;;;13.73;7.22;;;;;;;;;;5059246;28;20425;-83
2023/01/28 10:50:30;;;;;;;12.55;6.60;;;;;;;;;;5076958;28;20426;-81
2023/01/28 10:53:04;;;;;;;12.18;6.70;;;;;;;;;;5069504;28;20436;-82
2023/01/28 10:55:35;;;;;;;11.70;6.13;;;;;;;;;;5057295;28;21277;-82
2023/01/28 10:58:03;;;;;;;12.50;6.95;;;;;;;;;;5059427;28;20435;-82
2023/01/28 11:00:37;;;;;;;10.75;6.55;;;;;;;;;;5061663;28;20891;-82
2023/01/28 11:03:16;;;;;;;12.27;7.18;;;;;;;;;;5063213;28;20428;-83
2023/01/28 11:05:52;;;;;;;12.85;6.32;;;;;;;;;;5046203;28;20443;-82
2023/01/28 11:08:26;;;;;;;9.63;5.70;;;;;;;;;;5049740;28;21237;-83
2023/01/28 11:11:00;;;;;;;9.90;6.10;;;;;;;;;;5042264;28;20435;-85
2023/01/28 11:13:29;;;;;;;11.00;6.07;;;;;;;;;;5043376;28;20943;-84
2023/01/28 11:16:00;;;;;;;13.13;5.93;;;;;;;;;;5038963;28;20427;-83
2023/01/28 11:18:34;;;;;;;10.80;5.93;;;;;;;;;;5036476;28;20439;-82
2023/01/28 11:21:04;;;;;;;9.75;5.57;;;;;;;;;;5045438;28;20426;-82
2023/01/28 11:23:33;;;;;;;11.65;5.82;;;;;;;;;;5036991;28;20434;-84
2023/01/28 11:26:05;;;;;;;14.20;5.80;;;;;;;;;;5040246;28;22085;-83
2023/01/28 11:28:33;;;;;;;10.50;6.03;;;;;;;;;;5046337;28;20427;-83
2023/01/28 11:31:06;;;;;;;13.27;6.80;;;;;;;;;;5047204;28;20423;-83
2023/01/28 11:33:39;;;;;;;12.45;6.72;;;;;;;;;;5050188;28;21390;-84
2023/01/28 11:36:14;;;;;;;15.10;7.18;;;;;;;;;;5047548;28;21087;-84
2023/01/28 11:38:48;;;;;;;13.82;7.20;;;;;;;;;;5054113;28;20440;-83
2023/01/28 11:41:27;;;;;;;10.77;6.70;;;;;;;;;;5044893;28;20858;-83
2023/01/28 11:44:05;;;;;;;10.57;6.00;;;;;;;;;;5046350;28;20997;-84
2023/01/28 11:47:00;;;;;;;12.48;6.65;;;;;;;;;;5063982;28;20475;-82
2023/01/28 11:49:39;;;;;;;12.32;6.60;;;;;;;;;;5046443;28;20435;-84
2023/01/28 11:52:15;;;;;;;12.43;6.60;;;;;;;;;;5040422;28;20424;-83
2023/01/28 11:54:53;;;;;;;12.48;6.95;;;;;;;;;;5070006;28;20883;-83
2023/01/28 11:57:26;;;;;;;13.13;7.10;;;;;;;;;;5064738;28;20403;-82
2023/01/28 12:00:02;;;;;;;12.70;7.18;;;;;;;;;;5058540;28;20420;-84
2023/01/28 12:02:44;;;;;;;13.38;6.72;;;;;;;;;;5062165;28;20429;-83
2023/01/28 12:05:27;;;;;;;13.05;6.45;;;;;;;;;;5059589;28;20448;-84
2023/01/28 12:08:00;;;;;;;13.27;6.50;;;;;;;;;;5061954;28;21697;-84
2023/01/28 12:10:38;;;;;;;11.65;6.15;;;;;;;;;;5076055;28;20421;-83
2023/01/28 12:13:23;;;;;;;10.30;5.90;;;;;;;;;;5079732;28;20432;-83
2023/01/28 12:16:07;;;;;;;10.95;5.80;;;;;;;;;;5060587;28;20422;-83
2023/01/28 12:18:49;;;;;;;11.40;5.63;;;;;;;;;;5075541;28;20431;-84
2023/01/28 12:21:24;;;;;;;10.27;5.97;;;;;;;;;;5063250;28;20417;-84
2023/01/28 12:24:04;;;;;;;10.52;5.78;;;;;;;;;;5075452;28;20432;-83
2023/01/28 12:26:41;;;;;;;12.43;6.18;;;;;;;;;;5058485;28;20436;-83
2023/01/28 12:29:18;;;;;;;12.03;6.17;;;;;;;;;;5059884;28;21000;-84
2023/01/28 12:31:57;;;;;;;12.70;5.90;;;;;;;;;;5060243;28;20430;-84
2023/01/28 12:34:40;;;;;;;10.65;6.38;;;;;;;;;;5079464;28;20430;-84
2023/01/28 12:37:12;;;;;;;10.75;5.68;;;;;;;;;;5063569;28;20441;-83
2023/01/28 12:39:46;;;;;;;13.27;6.25;;;;;;;;;;5062686;28;20423;-84
2023/01/28 12:42:19;;;;;;;11.68;6.25;;;;;;;;;;5066704;28;20416;-83
2023/01/28 12:44:56;;;;;;;11.18;6.60;;;;;;;;;;5058794;28;20431;-83
2023/01/28 12:47:27;;;;;;;11.18;6.80;;;;;;;;;;5067656;28;20433;-82
2023/01/28 12:49:57;;;;;;;11.32;6.50;;;;;;;;;;5078858;28;20430;-83
2023/01/28 12:52:28;;;;;;;11.57;6.20;;;;;;;;;;5081847;28;20433;-83
2023/01/28 12:55:02;;;;;;;11.10;6.35;;;;;;;;;;5065321;28;20431;-83
2023/01/28 12:57:35;;;;;;;12.35;6.50;;;;;;;;;;5064466;28;20438;-82
2023/01/28 13:00:19;;;;;;;11.52;6.70;;;;;;;;;;5060732;28;21012;-82
2023/01/28 13:02:53;;;;;;;10.40;6.50;;;;;;;;;;5063876;28;20520;-83
2023/01/28 13:05:23;;;;;;;13.23;6.70;;;;;;;;;;5061613;28;20433;-83
2023/01/28 13:08:00;;;;;;;11.95;6.18;;;;;;;;;;5059083;28;20442;-84
2023/01/28 13:10:29;;;;;;;11.40;6.22;;;;;;;;;;5076711;28;21038;-83
2023/01/28 13:13:03;;;;;;;11.70;6.30;;;;;;;;;;5060489;28;20800;-83
2023/01/28 13:15:32;;;;;;;12.13;6.03;;;;;;;;;;5062572;28;20430;-83
2023/01/28 13:18:05;;;;;;;11.25;6.47;;;;;;;;;;5060032;28;20753;-83
2023/01/28 13:20:46;;;;;;;12.43;6.25;;;;;;;;;;5082210;28;20435;-82
2023/01/28 13:23:23;;;;;;;11.35;6.32;;;;;;;;;;5055201;28;20917;-83
2023/01/28 13:25:52;;;;;;;12.63;6.63;;;;;;;;;;5080688;28;20428;-82
2023/01/28 13:28:27;;;;;;;12.30;6.43;;;;;;;;;;5060654;28;20791;-82
2023/01/28 13:31:02;;;;;;;10.45;5.93;;;;;;;;;;5061115;28;20470;-82
2023/01/28 13:33:31;;;;;;;11.57;6.85;;;;;;;;;;5059303;28;20430;-83
2023/01/28 13:36:08;;;;;;;11.97;6.47;;;;;;;;;;5060554;28;20461;-84
2023/01/28 13:38:36;;;;;;;15.23;6.72;;;;;;;;;;5064712;28;20428;-84
2023/01/28 13:41:09;;;;;;;12.15;6.53;;;;;;;;;;5062294;28;20421;-83
2023/01/28 13:43:37;;;;;;;12.52;6.72;;;;;;;;;;5068035;28;20433;-83
2023/01/28 13:46:08;;;;;;;11.43;6.80;;;;;;;;;;5069608;28;20443;-84
2023/01/28 13:48:42;;;;;;;11.82;6.82;;;;;;;;;;5049753;28;20427;-83
2023/01/28 13:51:15;;;;;;;13.85;7.10;;;;;;;;;;5037996;28;20436;-83
2023/01/28 13:53:45;;;;;;;13.27;7.10;;;;;;;;;;5040901;28;21407;-83
2023/01/28 13:56:21;;;;;;;12.32;7.25;;;;;;;;;;5046578;28;20432;-82
2023/01/28 13:59:10;;;;;;;12.15;6.85;;;;;;;;;;5044778;28;20439;-83
2023/01/28 14:01:56;;;;;;;12.80;7.28;;;;;;;;;;5044884;28;20439;-83
2023/01/28 14:04:43;;;;;;;13.77;6.82;;;;;;;;;;5049162;28;20419;-82
2023/01/28 14:07:18;;;;;;;12.60;7.38;;;;;;;;;;5072852;28;20430;-82
2023/01/28 14:09:53;;;;;;;12.80;6.97;;;;;;;;;;5074735;28;20446;-83
2023/01/28 14:12:30;;;;;;;14.48;6.80;;;;;;;;;;5056456;28;20941;-82
2023/01/28 14:15:20;;;;;;;12.85;7.47;;;;;;;;;;5074111;28;20433;-82
2023/01/28 14:17:49;;;;;;;12.43;6.85;;;;;;;;;;5028477;28;20424;-83
2023/01/28 14:20:19;;;;;;;14.25;7.35;;;;;;;;;;5058344;28;20432;-82
2023/01/28 14:22:57;;;;;;;12.98;6.70;;;;;;;;;;5059225;28;20443;-83
2023/01/28 14:25:29;;;;;;;14.15;7.00;;;;;;;;;;5061816;28;20431;-82
2023/01/28 14:28:02;;;;;;;13.35;7.07;;;;;;;;;;5077372;28;20425;-83
2023/01/28 14:30:42;;;;;;;11.63;6.47;;;;;;;;;;5080052;28;20984;-82
2023/01/28 14:33:12;;;;;;;11.98;6.85;;;;;;;;;;5059805;28;20939;-82
2023/01/28 14:35:45;;;;;;;12.10;7.10;;;;;;;;;;5059722;28;20911;-83
2023/01/28 14:38:21;;;;;;;12.30;7.05;;;;;;;;;;5077715;28;20440;-82
2023/01/28 14:40:54;;;;;;;12.63;7.22;;;;;;;;;;5061578;28;20417;-82
2023/01/28 14:43:23;;;;;;;13.57;6.95;;;;;;;;;;5073046;28;20431;-82
2023/01/28 14:46:02;;;;;;;12.23;7.13;;;;;;;;;;5060563;28;21221;-82
2023/01/28 14:48:38;;;;;;;14.48;7.60;;;;;;;;;;5058062;28;20931;-83
2023/01/28 14:51:14;;;;;;;14.63;7.78;;;;;;;;;;5062613;28;20428;-83
2023/01/28 14:53:51;;;;;;;14.45;7.80;;;;;;;;;;5040075;28;21057;-83
2023/01/28 14:56:31;;;;;;;15.48;8.00;;;;;;;;;;5046897;28;20424;-83
2023/01/28 14:59:08;;;;;;;14.23;8.15;;;;;;;;;;5043491;28;21247;-84
2023/01/28 15:01:43;;;;;;;15.43;7.75;;;;;;;;;;5042729;28;20446;-83
2023/01/28 15:04:22;;;;;;;13.25;7.32;;;;;;;;;;5042831;28;20427;-83
2023/01/28 15:06:50;;;;;;;15.02;7.55;;;;;;;;;;5043213;28;20419;-82
2023/01/28 15:09:24;;;;;;;13.85;7.70;;;;;;;;;;5040587;28;21116;-82
2023/01/28 15:11:54;;;;;;;14.68;7.75;;;;;;;;;;5056816;28;20438;-82
2023/01/28 15:14:28;;;;;;;13.95;7.70;;;;;;;;;;5042805;28;20417;-82
2023/01/28 15:16:56;;;;;;;14.73;7.35;;;;;;;;;;5042706;28;20430;-82
2023/01/28 15:19:30;;;;;;;15.85;7.95;;;;;;;;;;5043366;28;20443;-81
2023/01/28 15:21:59;;;;;;;16.73;8.23;;;;;;;;;;5042349;28;20432;-82
2023/01/28 15:24:35;;;;;;;14.97;8.77;;;;;;;;;;5041066;28;20455;-83
2023/01/28 15:27:03;;;;;;;16.80;8.73;;;;;;;;;;5046819;28;21215;-83
2023/01/28 15:29:37;;;;;;;15.73;8.20;;;;;;;;;;5042394;28;20919;-83
2023/01/28 15:32:05;;;;;;;13.98;8.40;;;;;;;;;;5039404;28;21133;-82
2023/01/28 15:34:45;;;;;;;15.13;8.50;;;;;;;;;;5043197;28;20428;-82
2023/01/28 15:37:18;;;;;;;14.27;8.55;;;;;;;;;;5042074;28;20431;-82
2023/01/28 15:40:01;;;;;;;16.25;8.75;;;;;;;;;;5044723;28;20444;-83
2023/01/28 15:42:34;;;;;;;16.65;9.10;;;;;;;;;;5038419;28;20436;-82
2023/01/28 15:45:14;;;;;;;20.27;9.90;;;;;;;;;;5043383;28;20420;-82
2023/01/28 15:47:42;;;;;;;16.83;9.35;;;;;;;;;;5038175;28;20439;-83
2023/01/28 15:50:17;;;;;;;20.60;10.10;;;;;;;;;;5055204;28;20419;-83